createdAt,value
2022-10-16T00:01:20.750Z,3.42
2022-10-16T00:06:19.394Z,4.47
2022-10-16T00:11:24.844Z,3.92
2022-10-16T00:16:21.435Z,3.42
2022-10-16T00:21:20.781Z,3.38
2022-10-16T00:26:17.975Z,3.58
2022-10-16T00:31:15.259Z,4.07
2022-10-16T00:36:15.006Z,3.25
2022-10-16T00:41:17.572Z,3.70
2022-10-16T00:46:22.291Z,4.15
2022-10-16T00:51:26.456Z,3.60
2022-10-16T00:56:23.051Z,3.72
2022-10-16T01:01:19.425Z,4.20
2022-10-16T01:06:52.992Z,4.10
2022-10-16T01:12:02.517Z,3.60
2022-10-16T01:17:14.132Z,3.67
2022-10-16T01:22:10.673Z,3.63
2022-10-16T01:27:10.782Z,3.60
2022-10-16T01:32:21.505Z,3.85
2022-10-16T01:37:28.416Z,2.88
2022-10-16T01:42:36.039Z,3.25
2022-10-16T01:47:32.804Z,3.13
2022-10-16T01:52:30.659Z,3.28
2022-10-16T01:57:29.587Z,4.32
2022-10-16T02:02:29.467Z,4.03
2022-10-16T02:07:26.143Z,3.40
2022-10-16T02:12:28.424Z,3.33
2022-10-16T02:17:25.288Z,3.35
2022-10-16T02:22:37.144Z,3.90
2022-10-16T02:27:53.774Z,3.72
2022-10-16T02:32:51.919Z,3.45
2022-10-16T02:37:50.417Z,4.15
2022-10-16T02:42:51.696Z,3.65
2022-10-16T02:47:48.537Z,4.78
2022-10-16T02:52:44.904Z,4.15
2022-10-16T02:57:41.391Z,4.20
2022-10-16T03:02:38.049Z,4.80
2022-10-16T03:07:34.352Z,4.22
2022-10-16T03:12:30.998Z,3.55
2022-10-16T03:17:27.719Z,4.15
2022-10-16T03:22:24.262Z,4.10
2022-10-16T03:27:20.625Z,4.10
2022-10-16T03:32:16.982Z,4.07
2022-10-16T03:37:13.643Z,3.50
2022-10-16T03:42:10.054Z,4.53
2022-10-16T03:47:06.378Z,4.55
2022-10-16T03:52:02.730Z,4.03
2022-10-16T03:56:59.082Z,3.85
2022-10-16T04:01:55.417Z,4.88
2022-10-16T04:06:52.198Z,4.18
2022-10-16T04:11:48.524Z,3.70
2022-10-16T04:16:44.853Z,4.25
2022-10-16T04:21:41.517Z,3.53
2022-10-16T04:26:38.190Z,3.75
2022-10-16T04:31:34.764Z,3.80
2022-10-16T04:36:31.600Z,3.50
2022-10-16T04:41:27.897Z,3.30
2022-10-16T04:46:24.227Z,3.42
2022-10-16T04:51:20.711Z,2.67
2022-10-16T04:56:17.179Z,2.70
2022-10-16T05:01:14.352Z,2.90
2022-10-16T05:06:10.797Z,3.03
2022-10-16T05:11:07.122Z,2.72
2022-10-16T05:16:03.490Z,2.83
2022-10-16T05:20:59.839Z,2.10
2022-10-16T05:25:59.081Z,2.60
2022-10-16T05:30:55.537Z,2.50
2022-10-16T05:35:52.686Z,2.42
2022-10-16T05:40:57.113Z,2.10
2022-10-16T05:46:02.565Z,1.83
2022-10-16T05:51:07.938Z,1.67
2022-10-16T05:56:05.675Z,1.98
2022-10-16T06:01:08.087Z,1.92
2022-10-16T06:06:16.122Z,2.00
2022-10-16T06:11:18.045Z,1.90
2022-10-16T06:16:14.398Z,2.17
2022-10-16T06:21:14.990Z,1.95
2022-10-16T06:26:14.248Z,1.55
2022-10-16T06:31:11.958Z,1.73
2022-10-16T06:36:14.251Z,1.80
2022-10-16T06:41:13.354Z,1.80
2022-10-16T06:46:12.406Z,1.65
2022-10-16T06:51:17.319Z,1.52
2022-10-16T06:56:20.470Z,1.40
2022-10-16T07:01:18.959Z,1.20
2022-10-16T07:06:19.363Z,1.17
2022-10-16T07:11:18.366Z,1.52
2022-10-16T07:16:17.471Z,1.40
2022-10-16T07:21:16.210Z,1.30
2022-10-16T07:26:12.674Z,1.33
2022-10-16T07:31:12.289Z,1.08
2022-10-16T07:36:11.428Z,1.20
2022-10-16T07:41:14.713Z,1.00
2022-10-16T07:46:11.179Z,1.27
2022-10-16T07:51:07.995Z,1.00
2022-10-16T07:56:06.858Z,0.70
2022-10-16T08:01:08.543Z,0.80
2022-10-16T08:06:05.585Z,1.17
2022-10-16T08:11:04.735Z,0.93
2022-10-16T08:16:02.207Z,1.30
2022-10-16T08:21:01.170Z,1.33
2022-10-16T08:26:04.069Z,1.70
2022-10-16T08:31:28.094Z,1.20
2022-10-16T08:36:24.453Z,0.90
2022-10-16T08:41:55.838Z,1.00
2022-10-16T08:47:14.099Z,1.27
2022-10-16T08:52:16.430Z,0.90
2022-10-16T08:57:24.387Z,0.95
2022-10-16T09:02:52.063Z,0.80
2022-10-16T09:13:23.722Z,0.77
2022-10-16T09:18:23.045Z,1.15
2022-10-16T09:23:26.271Z,0.93
2022-10-16T09:28:22.770Z,0.85
2022-10-16T09:33:21.638Z,0.77
2022-10-16T09:38:26.012Z,1.35
2022-10-16T09:43:31.690Z,0.70
2022-10-16T09:48:39.195Z,0.70
2022-10-16T09:53:44.837Z,0.90
2022-10-16T09:58:50.150Z,0.47
2022-10-16T10:09:57.651Z,0.43
2022-10-16T10:14:57.328Z,0.50
2022-10-16T10:20:16.183Z,0.43
2022-10-16T10:25:12.606Z,0.47
2022-10-16T10:30:21.159Z,0.63
2022-10-16T10:35:26.732Z,0.63
2022-10-16T10:40:31.458Z,0.50
2022-10-16T10:45:37.298Z,0.60
2022-10-16T10:50:50.588Z,0.55
2022-10-16T10:55:55.152Z,0.32
2022-10-16T11:01:25.221Z,0.60
2022-10-16T11:06:27.864Z,0.50
2022-10-16T11:11:30.771Z,0.55
2022-10-16T11:16:33.788Z,0.55
2022-10-16T11:21:44.399Z,0.40
2022-10-16T11:26:43.626Z,0.70
2022-10-16T11:31:45.722Z,0.50
2022-10-16T11:36:49.594Z,0.85
2022-10-16T11:41:57.592Z,0.63
2022-10-16T11:47:46.442Z,0.50
2022-10-16T11:52:47.594Z,0.57
2022-10-16T11:57:52.877Z,0.50
2022-10-16T12:02:52.221Z,1.00
2022-10-16T12:08:16.289Z,0.63
2022-10-16T12:13:33.662Z,0.60
2022-10-16T12:18:30.118Z,0.30
2022-10-16T12:23:26.656Z,0.95
2022-10-16T12:28:28.913Z,0.47
2022-10-16T12:33:28.943Z,1.42
2022-10-16T12:38:47.399Z,0.52
2022-10-16T12:43:48.852Z,0.60
2022-10-16T12:49:06.087Z,0.40
2022-10-16T12:54:15.116Z,0.68
2022-10-16T12:59:41.096Z,0.70
2022-10-16T13:04:51.965Z,0.52
2022-10-16T13:10:13.128Z,0.50
2022-10-16T13:15:36.670Z,0.75
2022-10-16T13:20:47.633Z,0.60
2022-10-16T13:26:14.489Z,0.60
2022-10-16T13:31:18.273Z,0.63
2022-10-16T13:36:26.581Z,0.60
2022-10-16T13:41:22.920Z,0.70
2022-10-16T13:46:26.396Z,0.80
2022-10-16T13:56:22.614Z,1.15
2022-10-16T14:01:26.164Z,0.75
2022-10-16T14:06:25.538Z,0.70
2022-10-16T14:11:24.714Z,1.08
2022-10-16T14:16:23.700Z,0.55
2022-10-16T14:21:20.767Z,0.93
2022-10-16T14:26:20.459Z,0.73
2022-10-16T14:31:32.115Z,0.80
2022-10-16T14:36:30.104Z,0.60
2022-10-16T14:41:26.468Z,0.85
2022-10-16T14:46:34.372Z,0.70
2022-10-16T14:51:30.919Z,0.70
2022-10-16T14:56:33.099Z,0.60
2022-10-16T15:01:29.957Z,0.82
2022-10-16T15:06:26.318Z,0.52
2022-10-16T15:11:22.702Z,0.85
2022-10-16T15:16:19.064Z,0.85
2022-10-16T15:21:33.727Z,1.10
2022-10-16T15:26:30.948Z,0.90
2022-10-16T15:31:27.393Z,0.73
2022-10-16T15:36:37.877Z,0.50
2022-10-16T15:41:34.498Z,0.88
2022-10-16T15:46:31.945Z,0.70
2022-10-16T15:51:30.587Z,0.60
2022-10-16T15:56:27.153Z,1.08
2022-10-16T16:01:23.704Z,0.80
2022-10-16T16:06:20.353Z,0.75
2022-10-16T16:11:18.189Z,0.90
2022-10-16T16:21:13.335Z,1.10
2022-10-16T16:26:30.440Z,0.98
2022-10-16T16:31:28.283Z,0.70
2022-10-16T16:36:26.002Z,0.68
2022-10-16T16:41:26.699Z,1.10
2022-10-16T16:46:23.501Z,1.13
2022-10-16T16:51:20.690Z,2.22
2022-10-16T16:56:18.333Z,1.27
2022-10-16T17:01:19.767Z,1.00
2022-10-16T17:06:20.348Z,1.48
2022-10-16T17:11:23.524Z,1.48
2022-10-16T17:16:19.858Z,1.40
2022-10-16T17:21:16.603Z,2.05
2022-10-16T17:26:15.767Z,1.63
2022-10-16T17:31:33.948Z,2.10
2022-10-16T17:36:33.972Z,1.98
2022-10-16T17:41:31.235Z,2.00
2022-10-16T17:46:27.874Z,1.80
2022-10-16T17:51:27.126Z,1.85
2022-10-16T17:56:25.147Z,2.63
2022-10-16T18:06:22.718Z,4.97
2022-10-16T18:11:21.126Z,2.90
2022-10-16T18:16:17.549Z,2.72
2022-10-16T18:21:16.723Z,3.08
2022-10-16T18:26:14.017Z,2.45
2022-10-16T18:31:15.695Z,2.80
2022-10-16T18:36:12.040Z,6.32
2022-10-16T18:41:08.748Z,4.10
2022-10-16T18:46:08.670Z,3.88
2022-10-16T18:51:15.317Z,3.95
2022-10-16T18:56:14.987Z,3.83
2022-10-16T19:01:16.979Z,3.90
2022-10-16T19:06:16.363Z,3.70
2022-10-16T19:11:16.695Z,3.70
2022-10-16T19:16:25.028Z,3.92
2022-10-16T19:21:21.884Z,4.25
2022-10-16T19:26:19.519Z,3.75
2022-10-16T19:31:18.446Z,3.45
2022-10-16T19:36:14.856Z,3.55
2022-10-16T19:41:16.674Z,4.57
2022-10-16T19:46:16.030Z,4.00
2022-10-16T19:51:17.806Z,2.97
2022-10-16T19:56:21.318Z,3.50
2022-10-16T20:01:18.272Z,4.88
2022-10-16T20:06:16.160Z,2.88
2022-10-16T20:11:18.765Z,3.08
2022-10-16T20:16:18.963Z,1.90
2022-10-16T20:21:17.653Z,2.20
2022-10-16T20:26:15.303Z,2.17
2022-10-16T20:31:18.104Z,1.70
2022-10-16T20:36:15.610Z,1.20
2022-10-16T20:41:13.090Z,1.40
2022-10-16T20:46:13.442Z,1.35
2022-10-16T20:51:31.901Z,1.17
2022-10-16T20:56:30.535Z,1.10
2022-10-16T21:01:28.925Z,1.08
2022-10-16T21:06:26.275Z,1.30
2022-10-16T21:11:25.902Z,1.30
2022-10-16T21:16:22.493Z,1.10
2022-10-16T21:21:28.055Z,1.10
2022-10-16T21:26:28.287Z,1.30
2022-10-16T21:31:24.834Z,1.63
2022-10-16T21:36:26.796Z,1.35
2022-10-16T21:41:25.982Z,1.25
2022-10-16T21:46:24.902Z,1.10
2022-10-16T21:51:26.335Z,1.30
2022-10-16T21:56:23.210Z,1.10
2022-10-16T22:01:22.202Z,1.30
2022-10-16T22:11:24.956Z,1.40
2022-10-16T22:16:23.686Z,1.88
2022-10-16T22:21:20.105Z,1.48
2022-10-16T22:26:16.499Z,1.02
2022-10-16T22:31:14.270Z,1.30
2022-10-16T22:36:13.755Z,1.65
2022-10-16T22:41:12.539Z,1.40
2022-10-16T22:46:10.920Z,1.90
2022-10-16T22:51:08.162Z,1.98
2022-10-16T22:56:04.535Z,1.70
2022-10-16T23:01:01.197Z,1.40
2022-10-16T23:05:57.569Z,1.88
2022-10-16T23:10:54.114Z,1.95
2022-10-16T23:15:50.448Z,1.80
2022-10-16T23:20:46.748Z,1.95
2022-10-16T23:25:49.538Z,2.17
2022-10-16T23:30:45.869Z,2.03
2022-10-16T23:35:42.411Z,2.50
2022-10-16T23:40:38.734Z,2.75
2022-10-16T23:45:35.043Z,2.50
2022-10-16T23:50:31.460Z,2.75
2022-10-16T23:55:27.922Z,2.88
